createdAt,value
2019-05-21T00:00:38.883Z,99.90
2019-05-21T00:03:09.012Z,99.90
2019-05-21T00:05:38.902Z,99.90
2019-05-21T00:08:08.904Z,99.90
2019-05-21T00:10:38.935Z,99.90
2019-05-21T00:13:08.801Z,99.90
2019-05-21T00:15:38.604Z,99.90
2019-05-21T00:18:08.513Z,99.90
2019-05-21T00:20:40.887Z,99.90
2019-05-21T00:23:10.886Z,99.90
2019-05-21T00:25:40.847Z,99.90
2019-05-21T00:28:40.954Z,99.90
2019-05-21T00:31:46.479Z,99.90
2019-05-21T00:34:52.338Z,99.90
2019-05-21T00:37:58.215Z,99.90
2019-05-21T00:41:04.039Z,99.90
2019-05-21T00:43:55.848Z,99.90
2019-05-21T00:46:25.726Z,99.90
2019-05-21T00:48:55.599Z,99.90
2019-05-21T00:51:25.643Z,99.90
2019-05-21T00:53:55.610Z,99.90
2019-05-21T00:56:25.543Z,99.90
2019-05-21T00:58:55.497Z,99.90
2019-05-21T01:01:25.476Z,99.90
2019-05-21T01:03:55.806Z,99.90
2019-05-21T01:06:25.661Z,99.90
2019-05-21T01:08:55.637Z,99.90
2019-05-21T01:11:25.545Z,99.90
2019-05-21T01:13:55.452Z,99.90
2019-05-21T01:16:25.401Z,99.90
2019-05-21T01:18:55.429Z,99.90
2019-05-21T01:21:25.338Z,99.90
2019-05-21T01:23:55.479Z,99.90
2019-05-21T01:26:25.407Z,99.90
2019-05-21T01:28:55.460Z,99.90
2019-05-21T01:31:25.351Z,99.90
2019-05-21T01:33:55.296Z,99.90
2019-05-21T01:36:25.829Z,99.90
2019-05-21T01:38:55.818Z,99.90
2019-05-21T01:41:25.811Z,99.90
2019-05-21T01:43:55.833Z,99.90
2019-05-21T01:46:25.781Z,99.90
2019-05-21T01:48:55.760Z,99.90
2019-05-21T01:51:25.900Z,99.90
2019-05-21T01:53:55.911Z,99.90
2019-05-21T01:56:25.925Z,99.90
2019-05-21T01:58:56.077Z,99.90
2019-05-21T02:01:25.994Z,99.90
2019-05-21T02:03:56.049Z,99.90
2019-05-21T02:06:25.911Z,99.90
2019-05-21T02:08:55.962Z,99.90
2019-05-21T02:11:25.894Z,99.90
2019-05-21T02:13:55.901Z,99.90
2019-05-21T02:16:26.014Z,99.90
2019-05-21T02:18:55.943Z,99.90
2019-05-21T02:21:25.838Z,99.90
2019-05-21T02:23:55.916Z,99.90
2019-05-21T02:26:25.958Z,99.90
2019-05-21T02:28:56.009Z,99.90
2019-05-21T02:31:25.988Z,99.90
2019-05-21T02:33:55.911Z,99.90
2019-05-21T02:36:25.838Z,99.90
2019-05-21T02:38:55.849Z,99.90
2019-05-21T02:41:25.842Z,99.90
2019-05-21T02:43:55.840Z,99.90
2019-05-21T02:46:25.874Z,99.90
2019-05-21T02:48:55.986Z,99.90
2019-05-21T02:51:26.315Z,99.90
2019-05-21T02:53:56.299Z,99.90
2019-05-21T02:56:26.672Z,99.90
2019-05-21T02:59:00.364Z,99.90
2019-05-21T03:01:39.614Z,99.90
2019-05-21T03:04:09.692Z,99.90
2019-05-21T03:06:39.654Z,99.90
2019-05-21T03:09:09.695Z,99.90
2019-05-21T03:11:39.664Z,99.90
2019-05-21T03:14:09.712Z,99.90
2019-05-21T03:16:39.663Z,99.90
2019-05-21T03:19:09.754Z,99.90
2019-05-21T03:21:39.659Z,99.90
2019-05-21T03:24:09.488Z,99.90
2019-05-21T03:26:39.503Z,99.90
2019-05-21T03:29:09.348Z,99.90
2019-05-21T03:31:39.281Z,99.90
2019-05-21T03:34:09.208Z,99.90
2019-05-21T03:36:39.247Z,99.90
2019-05-21T03:39:09.246Z,99.90
2019-05-21T03:41:39.280Z,99.90
2019-05-21T03:44:10.755Z,99.90
2019-05-21T03:46:41.422Z,99.90
2019-05-21T03:49:12.607Z,99.90
2019-05-21T03:51:43.681Z,99.90
2019-05-21T03:54:15.025Z,99.90
2019-05-21T03:56:46.671Z,99.90
2019-05-21T03:59:18.872Z,99.90
2019-05-21T04:01:48.817Z,99.90
2019-05-21T04:04:18.790Z,99.90
2019-05-21T04:06:52.099Z,99.90
2019-05-21T04:09:20.713Z,99.90
2019-05-21T04:11:53.137Z,99.90
2019-05-21T04:14:33.903Z,99.90
2019-05-21T04:17:13.577Z,99.90
2019-05-21T04:19:43.672Z,99.90
2019-05-21T04:22:18.382Z,99.90
2019-05-21T04:24:48.320Z,99.90
2019-05-21T04:27:18.205Z,99.90
2019-05-21T04:29:48.102Z,99.90
2019-05-21T04:32:18.144Z,99.90
2019-05-21T04:34:48.194Z,99.90
2019-05-21T04:37:18.234Z,99.90
2019-05-21T04:39:48.191Z,99.90
2019-05-21T04:42:18.235Z,99.90
2019-05-21T04:44:48.372Z,99.90
2019-05-21T04:47:19.826Z,99.90
2019-05-21T04:49:49.955Z,99.90
2019-05-21T04:52:20.216Z,99.90
2019-05-21T04:54:53.412Z,99.90
2019-05-21T04:57:23.538Z,99.90
2019-05-21T04:59:53.348Z,99.90
2019-05-21T05:02:23.253Z,99.90
2019-05-21T05:04:53.268Z,99.90
2019-05-21T05:07:28.329Z,99.90
2019-05-21T05:09:54.628Z,99.90
2019-05-21T05:12:24.689Z,99.90
2019-05-21T05:14:55.978Z,99.90
2019-05-21T05:17:25.828Z,99.90
2019-05-21T05:19:55.777Z,99.90
2019-05-21T05:22:25.603Z,99.90
2019-05-21T05:24:55.599Z,99.90
2019-05-21T05:27:25.541Z,99.90
2019-05-21T05:29:55.382Z,99.90
2019-05-21T05:32:25.195Z,99.90
2019-05-21T05:34:54.999Z,99.90
2019-05-21T05:37:25.940Z,99.90
2019-05-21T05:39:55.821Z,99.90
2019-05-21T05:42:25.672Z,99.90
2019-05-21T05:44:55.625Z,99.90
2019-05-21T05:47:25.447Z,99.90
2019-05-21T05:49:56.911Z,99.90
2019-05-21T05:52:26.725Z,99.90
2019-05-21T05:54:56.636Z,99.90
2019-05-21T05:57:26.486Z,99.90
2019-05-21T05:59:56.355Z,99.90
2019-05-21T06:02:26.167Z,99.90
2019-05-21T06:04:56.023Z,99.90
2019-05-21T06:07:25.964Z,99.90
2019-05-21T06:09:55.921Z,99.90
2019-05-21T06:12:25.893Z,99.90
2019-05-21T06:14:55.834Z,99.90
2019-05-21T06:17:25.639Z,99.90
2019-05-21T06:19:55.564Z,99.90
2019-05-21T06:22:25.357Z,99.90
2019-05-21T06:24:55.443Z,99.90
2019-05-21T06:27:25.295Z,99.90
2019-05-21T06:29:55.154Z,99.90
2019-05-21T06:32:24.977Z,99.90
2019-05-21T06:34:54.812Z,99.90
2019-05-21T06:37:24.713Z,99.90
2019-05-21T06:39:54.561Z,99.90
2019-05-21T06:42:24.363Z,99.90
2019-05-21T06:44:54.212Z,99.90
2019-05-21T06:47:24.029Z,99.90
2019-05-21T06:49:53.926Z,99.90
2019-05-21T06:52:23.731Z,99.90
2019-05-21T06:54:53.649Z,99.90
2019-05-21T06:57:23.454Z,99.90
2019-05-21T06:59:53.347Z,99.90
2019-05-21T07:02:25.538Z,99.90
2019-05-21T07:04:55.401Z,99.90
2019-05-21T07:07:25.185Z,99.90
2019-05-21T07:09:55.046Z,99.90
2019-05-21T07:12:24.874Z,99.90
2019-05-21T07:14:54.733Z,99.90
2019-05-21T07:17:24.547Z,99.90
2019-05-21T07:19:54.558Z,99.90
2019-05-21T07:22:24.383Z,99.90
2019-05-21T07:24:54.249Z,99.90
2019-05-21T07:27:24.976Z,99.90
2019-05-21T07:29:54.817Z,99.90
2019-05-21T07:32:24.827Z,99.90
2019-05-21T07:34:54.620Z,99.90
2019-05-21T07:37:24.481Z,99.90
2019-05-21T07:39:54.492Z,99.90
2019-05-21T07:42:24.381Z,99.90
2019-05-21T07:44:54.444Z,99.90
2019-05-21T07:47:24.311Z,99.90
2019-05-21T07:49:54.212Z,99.90
2019-05-21T07:52:24.054Z,99.90
2019-05-21T07:54:53.877Z,99.90
2019-05-21T07:57:23.692Z,99.90
2019-05-21T07:59:53.518Z,99.90
2019-05-21T08:02:23.503Z,99.90
2019-05-21T08:04:53.409Z,99.90
2019-05-21T08:07:23.254Z,99.90
2019-05-21T08:09:53.167Z,99.90
2019-05-21T08:12:37.868Z,99.90
2019-05-21T08:14:54.537Z,99.90
2019-05-21T08:17:28.464Z,99.90
2019-05-21T08:20:08.779Z,99.90
2019-05-21T08:22:29.921Z,99.90
2019-05-21T08:24:59.763Z,99.90
2019-05-21T08:27:29.539Z,99.90
2019-05-21T08:29:59.363Z,99.90
2019-05-21T08:32:29.270Z,99.90
2019-05-21T08:34:59.102Z,99.90
2019-05-21T08:37:28.927Z,99.90
2019-05-21T08:39:58.852Z,99.90
2019-05-21T08:42:28.839Z,99.90
2019-05-21T08:44:58.683Z,99.90
2019-05-21T08:47:30.101Z,99.90
2019-05-21T08:50:01.367Z,99.90
2019-05-21T08:52:31.254Z,99.90
2019-05-21T08:55:02.439Z,99.90
2019-05-21T08:57:32.497Z,99.90
2019-05-21T09:00:07.641Z,99.90
2019-05-21T09:02:42.917Z,99.90
2019-05-21T09:05:13.096Z,99.90
2019-05-21T09:07:53.139Z,99.90
2019-05-21T09:10:21.383Z,99.90
2019-05-21T09:12:51.446Z,99.90
2019-05-21T09:15:22.066Z,99.90
2019-05-21T09:17:53.306Z,99.90
2019-05-21T09:20:27.961Z,99.90
2019-05-21T09:23:00.509Z,99.90
2019-05-21T09:25:30.857Z,99.90
2019-05-21T09:28:00.715Z,99.90
2019-05-21T09:30:32.674Z,99.90
2019-05-21T09:33:08.395Z,99.90
2019-05-21T09:35:39.179Z,99.90
2019-05-21T09:38:12.407Z,99.90
2019-05-21T09:40:43.396Z,99.90
2019-05-21T09:43:13.587Z,99.90
2019-05-21T09:45:44.729Z,99.90
2019-05-21T09:48:14.911Z,99.90
2019-05-21T09:50:47.965Z,99.90
2019-05-21T09:53:17.855Z,99.90
2019-05-21T09:55:55.925Z,99.90
2019-05-21T09:58:35.634Z,99.90
2019-05-21T10:01:38.620Z,99.90
2019-05-21T10:04:13.972Z,99.90
2019-05-21T10:06:58.291Z,99.90
2019-05-21T10:09:36.716Z,95.10
2019-05-21T10:12:15.548Z,96.80
2019-05-21T10:14:57.276Z,94.40
2019-05-21T10:17:39.592Z,94.40
2019-05-21T10:20:16.320Z,93.00
2019-05-21T10:22:59.134Z,92.80
2019-05-21T10:25:37.626Z,94.10
2019-05-21T10:28:20.882Z,93.20
2019-05-21T10:30:59.056Z,91.30
2019-05-21T10:33:38.727Z,93.50
2019-05-21T10:36:15.242Z,94.90
2019-05-21T10:38:54.450Z,94.10
2019-05-21T10:41:32.317Z,97.10
2019-05-21T10:44:03.423Z,96.50
2019-05-21T10:46:40.119Z,95.70
2019-05-21T10:49:17.518Z,93.10
2019-05-21T10:51:52.108Z,96.20
2019-05-21T10:54:25.838Z,92.60
2019-05-21T10:57:00.404Z,95.40
2019-05-21T10:59:40.235Z,92.00
2019-05-21T11:02:26.897Z,92.10
2019-05-21T11:05:10.183Z,93.50
2019-05-21T11:07:50.560Z,92.50
2019-05-21T11:10:27.032Z,91.80
2019-05-21T11:13:10.334Z,95.10
2019-05-21T11:15:47.335Z,93.30
2019-05-21T11:18:23.064Z,92.60
2019-05-21T11:21:03.476Z,92.60
2019-05-21T11:23:38.098Z,93.90
2019-05-21T11:26:10.185Z,96.40
2019-05-21T11:28:44.832Z,99.00
2019-05-21T11:31:19.827Z,98.80
2019-05-21T11:33:54.046Z,99.90
2019-05-21T11:36:24.859Z,97.80
2019-05-21T11:38:54.770Z,98.00
2019-05-21T11:41:31.889Z,99.70
2019-05-21T11:44:07.619Z,98.50
2019-05-21T11:46:41.752Z,97.90
2019-05-21T11:49:15.538Z,98.80
2019-05-21T11:51:48.559Z,99.90
2019-05-21T11:54:18.592Z,99.90
2019-05-21T11:56:49.337Z,99.90
2019-05-21T11:59:19.982Z,99.90
2019-05-21T12:01:52.594Z,99.90
2019-05-21T12:04:35.027Z,97.50
2019-05-21T12:07:17.219Z,96.40
2019-05-21T12:09:47.316Z,96.20
2019-05-21T12:12:22.147Z,97.60
2019-05-21T12:14:59.990Z,96.40
2019-05-21T12:17:36.981Z,96.00
2019-05-21T12:20:36.063Z,96.10
2019-05-21T12:23:13.838Z,95.10
2019-05-21T12:25:49.846Z,95.50
2019-05-21T12:28:29.170Z,96.60
2019-05-21T12:31:15.645Z,97.50
2019-05-21T12:33:53.132Z,97.60
2019-05-21T12:36:33.936Z,97.50
2019-05-21T12:39:14.183Z,96.60
2019-05-21T12:41:43.995Z,94.10
2019-05-21T12:44:13.927Z,95.00
2019-05-21T12:46:49.819Z,96.30
2019-05-21T12:49:27.847Z,97.10
2019-05-21T12:52:13.028Z,96.10
2019-05-21T12:54:49.434Z,96.20
2019-05-21T12:57:27.980Z,95.90
2019-05-21T13:00:07.716Z,96.20
2019-05-21T13:02:44.611Z,97.70
2019-05-21T13:05:24.774Z,95.60
2019-05-21T13:08:04.551Z,95.10
2019-05-21T13:10:35.652Z,94.80
2019-05-21T13:13:05.620Z,96.50
2019-05-21T13:15:36.550Z,94.90
2019-05-21T13:18:06.775Z,94.60
2019-05-21T13:20:36.805Z,95.70
2019-05-21T13:23:06.820Z,95.50
2019-05-21T13:25:37.471Z,94.40
2019-05-21T13:28:07.342Z,94.80
2019-05-21T13:30:37.257Z,94.00
2019-05-21T13:33:07.181Z,94.60
2019-05-21T13:35:37.183Z,96.00
2019-05-21T13:38:07.146Z,94.30
2019-05-21T13:40:37.090Z,94.00
2019-05-21T13:43:07.138Z,94.20
2019-05-21T13:45:36.997Z,93.00
2019-05-21T13:48:06.905Z,92.30
2019-05-21T13:50:36.840Z,91.80
2019-05-21T13:53:06.808Z,91.60
2019-05-21T13:55:36.670Z,92.70
2019-05-21T13:58:06.795Z,92.00
2019-05-21T14:00:45.758Z,89.80
2019-05-21T14:03:15.749Z,90.10
2019-05-21T14:05:45.990Z,88.40
2019-05-21T14:08:15.860Z,91.50
2019-05-21T14:10:45.664Z,90.20
2019-05-21T14:13:16.133Z,90.60
2019-05-21T14:15:46.002Z,90.60
2019-05-21T14:18:18.372Z,91.20
2019-05-21T14:20:55.102Z,91.40
2019-05-21T14:23:40.992Z,90.70
2019-05-21T14:26:11.794Z,90.30
2019-05-21T14:28:41.754Z,88.90
2019-05-21T14:31:12.090Z,88.30
2019-05-21T14:33:46.390Z,88.40
2019-05-21T14:36:14.110Z,90.10
2019-05-21T14:38:45.336Z,90.20
2019-05-21T14:41:15.477Z,89.80
2019-05-21T14:43:46.991Z,90.50
2019-05-21T14:46:17.096Z,90.50
2019-05-21T14:48:49.636Z,91.10
2019-05-21T14:51:25.575Z,90.40
2019-05-21T14:53:58.352Z,89.80
2019-05-21T14:56:29.670Z,86.50
2019-05-21T14:59:00.900Z,88.30
2019-05-21T15:01:37.450Z,83.70
2019-05-21T15:04:07.777Z,84.00
2019-05-21T15:06:38.582Z,85.60
2019-05-21T15:09:10.078Z,84.50
2019-05-21T15:11:42.108Z,81.00
2019-05-21T15:14:13.128Z,79.40
2019-05-21T15:16:43.323Z,79.30
2019-05-21T15:19:14.401Z,80.90
2019-05-21T15:21:48.252Z,80.10
2019-05-21T15:24:18.580Z,82.20
2019-05-21T15:26:48.677Z,81.10
2019-05-21T15:29:19.322Z,80.30
2019-05-21T15:31:49.235Z,78.80
2019-05-21T15:34:19.847Z,79.60
2019-05-21T15:36:49.929Z,79.90
2019-05-21T15:39:23.301Z,78.50
2019-05-21T15:41:54.649Z,78.70
2019-05-21T15:44:28.034Z,80.50
2019-05-21T15:46:59.107Z,78.10
2019-05-21T15:49:36.658Z,77.60
2019-05-21T15:52:00.903Z,77.60
2019-05-21T15:54:32.903Z,78.20
2019-05-21T15:57:10.537Z,77.50
2019-05-21T15:59:40.303Z,80.40
2019-05-21T16:02:11.654Z,79.00
2019-05-21T16:04:42.631Z,78.80
2019-05-21T16:07:12.819Z,75.80
2019-05-21T16:09:42.853Z,76.60
2019-05-21T16:12:14.384Z,78.20
2019-05-21T16:14:44.617Z,77.40
2019-05-21T16:17:14.520Z,77.40
2019-05-21T16:19:44.699Z,78.10
2019-05-21T16:22:14.709Z,78.10
2019-05-21T16:24:50.935Z,78.10
2019-05-21T16:27:28.067Z,77.20
2019-05-21T16:30:01.041Z,79.00
2019-05-21T16:32:35.938Z,77.80
2019-05-21T16:35:06.297Z,78.00
2019-05-21T16:37:39.064Z,77.90
2019-05-21T16:40:19.860Z,79.00
2019-05-21T16:42:53.287Z,79.60
2019-05-21T16:45:28.761Z,81.20
2019-05-21T16:48:02.698Z,81.00
2019-05-21T16:50:36.056Z,81.40
2019-05-21T16:53:13.676Z,83.20
2019-05-21T16:55:45.944Z,85.00
2019-05-21T16:58:21.237Z,85.10
2019-05-21T17:00:58.234Z,85.40
2019-05-21T17:03:36.497Z,86.80
2019-05-21T17:06:08.982Z,85.20
2019-05-21T17:08:39.488Z,86.40
2019-05-21T17:11:10.259Z,85.60
2019-05-21T17:13:40.877Z,84.10
2019-05-21T17:16:13.520Z,84.10
2019-05-21T17:18:44.901Z,84.60
2019-05-21T17:21:15.840Z,85.30
2019-05-21T17:23:46.609Z,87.00
2019-05-21T17:26:18.586Z,87.40
2019-05-21T17:28:49.480Z,87.70
2019-05-21T17:31:20.074Z,89.00
2019-05-21T17:33:50.107Z,88.60
2019-05-21T17:36:20.392Z,88.50
2019-05-21T17:38:54.675Z,89.20
2019-05-21T17:41:24.737Z,89.10
2019-05-21T17:43:54.730Z,89.70
2019-05-21T17:46:24.539Z,90.50
2019-05-21T17:48:54.399Z,90.20
2019-05-21T17:51:24.466Z,89.60
2019-05-21T17:53:54.476Z,90.30
2019-05-21T17:56:24.336Z,90.30
2019-05-21T17:58:54.163Z,90.20
2019-05-21T18:01:24.636Z,90.00
2019-05-21T18:03:54.676Z,90.30
2019-05-21T18:06:25.277Z,90.80
2019-05-21T18:08:55.494Z,91.30
2019-05-21T18:11:25.474Z,90.50
2019-05-21T18:13:55.529Z,90.90
2019-05-21T18:16:25.532Z,91.50
2019-05-21T18:18:56.898Z,91.70
2019-05-21T18:21:26.768Z,92.30
2019-05-21T18:23:56.784Z,92.90
2019-05-21T18:26:26.805Z,93.40
2019-05-21T18:28:56.606Z,94.10
2019-05-21T18:31:26.640Z,95.00
2019-05-21T18:33:56.449Z,96.30
2019-05-21T18:36:26.817Z,97.90
2019-05-21T18:38:57.768Z,99.90
2019-05-21T18:41:27.764Z,99.90
2019-05-21T18:43:57.641Z,99.90
2019-05-21T18:46:27.501Z,99.90
2019-05-21T18:48:57.473Z,99.90
2019-05-21T18:51:27.412Z,99.90
2019-05-21T18:53:57.384Z,99.90
2019-05-21T18:56:27.304Z,99.90
2019-05-21T18:58:57.254Z,99.90
2019-05-21T19:01:27.328Z,99.90
2019-05-21T19:03:58.035Z,99.90
2019-05-21T19:06:28.041Z,99.90
2019-05-21T19:08:57.875Z,99.90
2019-05-21T19:11:28.303Z,99.90
2019-05-21T19:13:58.559Z,99.90
2019-05-21T19:16:30.188Z,99.90
2019-05-21T19:19:00.129Z,99.90
2019-05-21T19:21:30.366Z,99.90
2019-05-21T19:24:00.552Z,99.90
2019-05-21T19:26:33.429Z,99.90
2019-05-21T19:29:07.913Z,99.90
2019-05-21T19:31:39.605Z,99.90
2019-05-21T19:34:09.968Z,99.90
2019-05-21T19:36:39.926Z,99.90
2019-05-21T19:39:09.682Z,99.90
2019-05-21T19:41:39.577Z,99.90
2019-05-21T19:44:09.366Z,99.90
2019-05-21T19:46:39.280Z,99.90
2019-05-21T19:49:09.691Z,99.90
2019-05-21T19:51:39.671Z,99.90
2019-05-21T19:54:11.146Z,99.90
2019-05-21T19:56:41.217Z,99.90
2019-05-21T19:59:11.196Z,99.90
2019-05-21T20:01:41.256Z,99.90
2019-05-21T20:04:12.085Z,99.90
2019-05-21T20:06:41.916Z,99.90
2019-05-21T20:09:17.664Z,99.90
2019-05-21T20:11:49.070Z,99.90
2019-05-21T20:14:41.356Z,99.90
2019-05-21T20:17:12.422Z,99.90
2019-05-21T20:19:42.395Z,99.90
2019-05-21T20:22:13.343Z,99.90
2019-05-21T20:24:44.101Z,99.90
2019-05-21T20:27:15.062Z,99.90
2019-05-21T20:29:45.937Z,99.90
2019-05-21T20:32:17.205Z,99.90
2019-05-21T20:34:50.427Z,99.90
2019-05-21T20:37:20.452Z,99.90
2019-05-21T20:39:52.627Z,99.90
2019-05-21T20:42:23.355Z,99.90
2019-05-21T20:44:53.330Z,99.90
2019-05-21T20:47:24.363Z,99.90
2019-05-21T20:49:56.102Z,99.90
2019-05-21T20:52:26.111Z,99.90
2019-05-21T20:54:57.289Z,99.90
2019-05-21T20:57:27.414Z,99.90
2019-05-21T20:59:57.341Z,99.90
2019-05-21T21:02:28.416Z,99.90
2019-05-21T21:04:58.355Z,99.90
2019-05-21T21:07:28.380Z,99.90
2019-05-21T21:09:58.417Z,99.90
2019-05-21T21:12:28.942Z,99.90
2019-05-21T21:15:00.864Z,99.90
2019-05-21T21:17:30.926Z,99.90
2019-05-21T21:20:00.947Z,99.90
2019-05-21T21:22:31.310Z,99.90
2019-05-21T21:25:01.689Z,99.90
2019-05-21T21:27:31.944Z,99.90
2019-05-21T21:30:01.975Z,99.90
2019-05-21T21:32:32.109Z,99.90
2019-05-21T21:35:06.103Z,99.90
2019-05-21T21:37:36.135Z,99.90
2019-05-21T21:40:08.604Z,99.90
2019-05-21T21:42:38.461Z,99.90
2019-05-21T21:45:09.552Z,99.90
2019-05-21T21:47:41.308Z,99.90
2019-05-21T21:50:12.400Z,99.90
2019-05-21T21:52:43.506Z,99.90
2019-05-21T21:55:13.512Z,99.90
2019-05-21T21:57:43.480Z,99.90
2019-05-21T22:00:33.977Z,99.90
2019-05-21T22:03:09.011Z,99.90
2019-05-21T22:05:39.703Z,99.90
2019-05-21T22:08:11.015Z,99.90
2019-05-21T22:10:45.692Z,99.90
2019-05-21T22:13:13.798Z,99.90
2019-05-21T22:15:44.129Z,99.90
2019-05-21T22:18:15.678Z,99.90
2019-05-21T22:20:46.153Z,99.90
2019-05-21T22:23:16.620Z,99.90
2019-05-21T22:25:46.940Z,99.90
2019-05-21T22:28:17.062Z,99.90
2019-05-21T22:30:47.344Z,99.90
2019-05-21T22:33:18.334Z,99.90
2019-05-21T22:35:48.238Z,99.90
2019-05-21T22:38:18.225Z,99.90
2019-05-21T22:40:48.270Z,99.90
2019-05-21T22:43:18.185Z,99.90
2019-05-21T22:45:48.045Z,99.90
2019-05-21T22:48:17.821Z,99.90
2019-05-21T22:50:47.855Z,99.90
2019-05-21T22:53:17.651Z,99.90
2019-05-21T22:55:47.613Z,99.90
2019-05-21T22:58:17.617Z,99.90
2019-05-21T23:00:47.668Z,99.90
2019-05-21T23:03:17.623Z,99.90
2019-05-21T23:05:47.726Z,99.90
2019-05-21T23:08:18.354Z,99.90
2019-05-21T23:10:48.227Z,99.90
2019-05-21T23:13:18.041Z,99.90
2019-05-21T23:15:49.533Z,99.90
2019-05-21T23:18:19.957Z,99.90
2019-05-21T23:20:50.691Z,99.90
2019-05-21T23:23:22.428Z,99.90
2019-05-21T23:25:53.382Z,99.90
2019-05-21T23:28:23.672Z,99.90
2019-05-21T23:30:54.240Z,99.90
2019-05-21T23:33:24.061Z,99.90
2019-05-21T23:35:54.110Z,99.90
2019-05-21T23:38:25.355Z,99.90
2019-05-21T23:40:55.791Z,99.90
2019-05-21T23:43:26.582Z,99.90
2019-05-21T23:45:56.495Z,99.90
2019-05-21T23:48:28.009Z,99.90
2019-05-21T23:50:57.943Z,99.90
2019-05-21T23:53:27.870Z,99.90
2019-05-21T23:55:57.918Z,99.90
2019-05-21T23:58:27.701Z,99.90
